Latest Weather Observations for Adelaide

IDS60901

Issued at 8:51 am CDT Friday 27 March 2015 (issued every 10 minutes, with the page automatically refreshed every 10 minutes)

About weather observations | Map of Adelaide area stations | Latest observations for Adelaide area | Other Formats
Station Details ID: 023090 Name: KENT TOWN Lat: -34.92 Lon: 138.62 Height: 48.0 m
Data from the previous 72 hours. | See also: Recent months at Adelaide
Date/Time
CDT
Tmp

°C
App
Tmp
°C
Dew
Point
°C
Rel
Hum
%
Delta-T

°C
Wind Press
QNH
hPa
Press
MSL
hPa
Rain
since
9 am
mm
Dir
 
Spd
km/h
Gust
km/h
Spd
kts
Gust
kts
27/08:30am 14.8 12.7 6.7 58 3.9 S 7 11 4 6 1029.3 - 0.0
27/08:00am 14.4 12.9 7.0 61 3.6 S 4 7 2 4 1029.0 - 0.0
27/07:30am 14.2 12.2 7.0 62 3.5 S 7 11 4 6 1028.6 - 0.0
27/07:00am 14.0 13.0 7.5 65 3.2 SSW 2 7 1 4 1028.3 - 0.0
27/06:30am 14.0 12.2 7.2 63 3.3 SSW 6 9 3 5 1028.1 - 0.0
27/06:00am 13.9 12.1 7.1 63 3.3 SSW 6 9 3 5 1027.8 1027.7 0.0
27/05:30am 13.9 12.1 7.3 64 3.2 SW 6 9 3 5 1027.5 - 0.0
27/05:00am 13.8 12.1 7.5 66 3.1 SSW 6 11 3 6 1027.5 - 0.0
27/04:30am 13.4 13.0 8.4 72 2.5 CALM 0 0 0 0 1027.5 - 0.0
27/04:00am 13.3 13.0 8.7 73 2.3 CALM 0 0 0 0 1027.6 - 0.0
27/03:30am 13.3 12.6 8.5 72 2.4 S 2 7 1 4 1027.7 - 0.0
27/03:00am 13.2 10.4 8.4 72 2.4 SSW 13 24 7 13 1028.1 1028.0 0.0
27/02:30am 13.8 12.2 7.9 67 2.9 SE 6 9 3 5 1028.0 - 0.0
27/02:00am 13.9 12.1 7.8 66 3.0 S 7 11 4 6 1028.2 - 0.0
27/01:30am 14.1 12.2 7.6 65 3.2 SW 7 11 4 6 1028.3 - 0.0
27/01:00am 14.1 11.6 6.6 60 3.6 SSW 9 17 5 9 1028.4 - 0.0
27/12:30am 14.1 11.7 6.9 62 3.5 S 9 15 5 8 1028.3 - 0.0
27/12:00am 14.2 11.0 6.7 60 3.6 S 13 24 7 13 1028.4 1028.3 0.0
 
Date/Time
CDT
Tmp

°C
App
Tmp
°C
Dew
Point
°C
Rel
Hum
%
Delta-T

°C
Wind Press
QNH
hPa
Press
MSL
hPa
Rain
since
9 am
mm
Dir
 
Spd
km/h
Gust
km/h
Spd
kts
Gust
kts
26/11:30pm 14.1 11.3 6.9 62 3.5 SSW 11 19 6 10 1028.5 - 0.0
26/11:00pm 14.0 12.0 7.0 62 3.4 S 7 13 4 7 1028.4 - 0.0
26/10:30pm 13.7 11.8 7.6 66 3.0 SSE 7 11 4 6 1028.6 - 0.0
26/10:00pm 13.5 11.0 8.2 70 2.6 SSE 11 15 6 8 1028.7 - 0.0
26/09:30pm 13.5 9.6 8.5 72 2.5 S 19 30 10 16 1028.7 - 0.0
26/09:00pm 14.8 11.1 6.2 56 4.1 S 15 22 8 12 1028.2 1028.1 0.0
26/08:30pm 15.1 10.6 6.1 55 4.3 SSW 19 28 10 15 1028.1 - 0.0
26/08:00pm 15.3 10.6 5.1 50 4.8 S 19 26 10 14 1027.9 - 0.0
26/07:30pm 15.3 11.8 5.3 51 4.7 SSW 13 24 7 13 1027.7 - 0.0
26/07:00pm 15.4 10.6 4.9 49 4.9 SW 19 30 10 16 1027.5 - 0.0
26/06:30pm 16.3 11.1 3.7 43 5.8 SW 20 30 11 16 1027.1 - 0.0
26/06:00pm 16.9 11.6 2.8 39 6.4 SW 20 32 11 17 1026.8 1026.7 0.0
26/05:30pm 16.3 10.4 3.7 43 5.8 SW 24 41 13 22 1026.7 - 0.0
26/05:00pm 16.8 11.1 4.7 44 5.7 SW 24 41 13 22 1026.4 - 0.0
26/04:30pm 17.1 11.8 5.2 45 5.7 SW 22 32 12 17 1026.3 - 0.0
26/04:00pm 18.8 13.6 5.7 42 6.4 SW 22 33 12 18 1026.3 - 0.0
26/03:30pm 18.5 13.3 5.3 42 6.4 WSW 22 39 12 21 1026.2 - 0.0
26/03:00pm 17.8 12.6 5.3 43 6.0 WSW 22 35 12 19 1026.4 1026.3 0.0
26/02:30pm 17.3 11.5 4.3 42 6.1 WSW 24 35 13 19 1026.5 - 0.0
26/02:00pm 18.2 11.9 3.6 38 6.8 W 26 48 14 26 1026.7 - 0.0
26/01:57pm 18.2 11.5 3.6 38 6.8 W 28 48 15 26 1026.7 - 0.0
26/01:30pm 17.6 12.8 4.8 42 6.1 SW 19 32 10 17 1026.9 - 0.0
26/01:00pm 17.4 12.2 5.6 45 5.7 SW 22 35 12 19 1026.9 - 0.0
26/12:30pm 17.7 12.1 3.7 39 6.6 SW 22 33 12 18 1026.8 - 0.0
26/12:00pm 17.0 10.7 3.6 41 6.2 WSW 26 41 14 22 1026.9 1026.8 0.0
26/11:33am 16.4 9.7 3.8 43 5.9 SW 28 46 15 25 1026.8 - 0.0
26/11:30am 15.8 9.5 3.5 43 5.6 WSW 26 46 14 25 1026.8 - 0.0
26/11:00am 16.1 10.1 3.4 42 5.8 WSW 24 37 13 20 1026.8 - 0.0
26/10:30am 15.5 10.1 4.3 47 5.2 SW 22 33 12 18 1026.5 - 0.0
26/10:00am 15.2 9.3 4.1 47 5.1 SW 24 39 13 21 1026.2 - 0.0
26/09:30am 15.5 10.0 4.0 46 5.3 SW 22 37 12 20 1025.9 - 0.0
26/09:00am 14.9 8.9 3.1 45 5.3 SW 24 41 13 22 1025.5 1025.4 1.0
26/08:30am 13.9 9.7 3.7 50 4.6 SW 15 26 8 14 1024.9 - 1.0
26/08:00am 13.8 8.9 3.9 51 4.5 SW 19 30 10 16 1024.6 - 1.0
26/07:30am 13.4 8.3 3.0 49 4.6 SW 19 37 10 20 1024.2 - 1.0
26/07:00am 13.3 8.4 4.0 53 4.2 SW 19 35 10 19 1023.8 - 1.0
26/06:30am 13.3 7.9 2.3 47 4.8 SW 20 30 11 16 1023.4 - 1.0
26/06:00am 13.2 9.2 3.0 50 4.5 SW 13 24 7 13 1023.1 1023.0 1.0
26/05:30am 13.2 8.6 3.9 53 4.2 SW 17 30 9 16 1022.8 - 1.0
26/05:00am 13.4 8.2 2.7 48 4.7 SW 19 30 10 16 1022.6 - 1.0
26/04:30am 13.4 8.5 2.1 46 4.9 SW 17 30 9 16 1022.4 - 1.0
26/04:00am 13.3 8.0 2.9 49 4.6 SW 20 35 11 19 1022.4 - 1.0
26/03:30am 13.3 7.9 2.6 48 4.7 SW 20 32 11 17 1022.3 - 1.0
26/03:00am 13.3 8.0 2.0 46 4.9 SW 19 35 10 19 1022.5 1022.4 1.0
26/02:30am 13.6 8.7 3.9 52 4.4 SW 19 32 10 17 1022.3 - 1.0
26/02:00am 13.6 8.4 3.3 49 4.6 SW 20 39 11 21 1022.2 - 1.0
26/01:30am 13.8 8.3 2.1 45 5.1 WSW 20 39 11 21 1022.2 - 1.0
26/01:00am 13.7 7.5 2.0 45 5.1 WSW 24 43 13 23 1022.0 - 1.0
26/12:30am 14.0 8.8 3.6 49 4.7 SW 20 33 11 18 1021.9 - 1.0
26/12:00am 13.9 8.3 1.3 42 5.4 SW 20 37 11 20 1021.9 1021.8 1.0
 
Date/Time
CDT
Tmp

°C
App
Tmp
°C
Dew
Point
°C
Rel
Hum
%
Delta-T

°C
Wind Press
QNH
hPa
Press
MSL
hPa
Rain
since
9 am
mm
Dir
 
Spd
km/h
Gust
km/h
Spd
kts
Gust
kts
25/11:30pm 14.0 9.3 3.3 48 4.8 SW 17 28 9 15 1021.8 - 1.0
25/11:00pm 14.0 9.2 2.4 45 5.1 SW 17 35 9 19 1021.7 - 1.0
25/10:30pm 14.0 8.8 2.4 45 5.1 WSW 19 32 10 17 1021.6 - 1.0
25/10:00pm 14.2 9.2 4.7 53 4.4 SW 20 37 11 20 1021.3 - 1.0
25/09:30pm 14.4 8.5 3.9 49 4.8 WSW 24 39 13 21 1021.0 - 1.0
25/09:00pm 14.6 9.0 3.6 47 5.0 SW 22 43 12 23 1020.6 1020.5 1.0
25/08:30pm 14.4 10.1 7.7 64 3.3 SW 20 33 11 18 1019.9 - 1.0
25/08:00pm 13.2 10.5 8.8 74 2.2 SSW 13 20 7 11 1019.6 - 1.0
25/07:30pm 12.5 9.2 10.8 89 0.9 SW 19 39 10 21 1019.6 - 1.0
25/07:00pm 13.4 9.7 12.7 95 0.4 SW 24 44 13 24 1019.1 - 0.6
25/06:30pm 14.3 8.1 12.8 91 0.8 SW 37 63 20 34 1018.3 - 0.0
25/06:22pm 16.8 10.6 12.5 76 2.4 WSW 37 63 20 34 1017.9 - 0.0
25/06:01pm 17.8 13.2 12.4 70 3.0 W 28 46 15 25 1017.4 - 0.0
25/06:00pm 17.8 13.6 12.4 70 3.0 W 26 46 14 25 1017.4 1017.3 0.0
25/05:57pm 17.8 13.2 12.4 70 3.0 W 28 46 15 25 1017.4 - 0.0
25/05:30pm 19.6 14.8 7.5 45 6.2 WNW 22 35 12 19 1017.0 - 0.0
25/05:00pm 19.5 13.3 6.3 42 6.6 NW 28 41 15 22 1016.9 - 0.0
25/04:30pm 19.9 14.0 5.8 39 7.0 WNW 26 43 14 23 1017.1 - 0.0
25/04:00pm 20.9 14.5 5.3 36 7.7 WNW 28 44 15 24 1017.2 - 0.0
25/03:30pm 21.4 15.8 5.2 34 8.0 NW 24 46 13 25 1017.2 - 0.0
25/03:00pm 21.3 14.8 4.8 34 8.1 W 28 43 15 23 1017.6 1017.5 0.0
25/02:49pm 21.1 14.5 4.4 33 8.1 W 28 50 15 27 1017.6 - 0.0
25/02:30pm 21.1 14.8 3.8 32 8.3 WNW 26 41 14 22 1017.8 - 0.0
25/02:00pm 21.0 16.1 4.3 33 8.1 W 19 35 10 19 1018.2 - 0.0
25/01:30pm 19.7 15.3 6.5 42 6.6 NW 19 28 10 15 1018.8 - 0.0
25/01:00pm 19.1 14.3 5.6 41 6.6 NNW 20 35 11 19 1019.1 - 0.0
25/12:30pm 19.6 15.0 6.7 43 6.5 NNW 20 35 11 19 1019.3 - 0.0
25/12:00pm 18.0 14.4 6.7 47 5.6 NW 15 26 8 14 1019.5 1019.4 0.0
25/11:30am 16.7 12.7 6.5 51 5.0 NNW 17 28 9 15 1019.8 - 0.0
25/11:00am 17.2 12.5 5.1 44 5.8 NNW 19 26 10 14 1020.0 - 0.0
25/10:30am 16.3 11.8 4.0 44 5.7 NNW 17 28 9 15 1020.4 - 0.0
25/10:00am 15.8 11.7 4.2 46 5.4 N 15 20 8 11 1020.7 - 0.0
25/09:30am 14.8 11.1 4.2 49 4.9 N 13 20 7 11 1020.8 - 0.0
25/09:00am 13.7 10.4 4.3 53 4.3 N 11 19 6 10 1020.6 1020.5 0.0
25/08:30am 12.8 10.8 4.5 57 3.8 NNE 4 13 2 7 1020.4 - 0.0
25/08:00am 12.0 9.5 4.8 61 3.3 N 7 11 4 6 1020.4 - 0.0
25/07:30am 12.2 10.3 5.0 61 3.3 NE 4 9 2 5 1020.2 - 0.0
25/07:00am 12.2 10.6 4.5 59 3.5 ENE 2 7 1 4 1020.4 - 0.0
25/06:30am 12.2 9.9 5.0 61 3.3 ENE 6 9 3 5 1019.8 - 0.0
25/06:00am 12.7 10.1 4.3 56 3.8 N 7 9 4 5 1019.9 1019.8 0.0
25/05:30am 12.6 9.7 4.5 58 3.7 N 9 13 5 7 1020.0 - 0.0
25/05:00am 12.7 11.6 5.1 60 3.5 CALM 0 0 0 0 1019.8 - 0.0
25/04:30am 13.0 12.0 5.8 61 3.4 CALM 0 0 0 0 1019.8 - 0.0
25/04:00am 12.9 11.4 4.9 58 3.7 ESE 2 7 1 4 1019.9 - 0.0
25/03:30am 12.8 10.5 4.7 58 3.7 ESE 6 9 3 5 1020.5 - 0.0
25/03:00am 12.6 10.3 4.7 58 3.6 ESE 6 13 3 7 1020.9 1020.8 0.0
25/02:30am 12.2 11.1 5.0 61 3.3 CALM 0 0 0 0 1021.3 - 0.0
25/02:00am 12.2 10.9 4.2 58 3.6 CALM 0 6 0 3 1021.3 - 0.0
25/01:30am 12.4 10.4 4.5 58 3.6 S 4 9 2 5 1021.4 - 0.0
25/01:00am 13.1 10.5 4.0 54 4.1 SSE 7 11 4 6 1021.6 - 0.0
25/12:30am 13.1 10.6 4.6 56 3.9 SSE 7 9 4 5 1022.1 - 0.0
25/12:00am 13.3 11.7 4.3 54 4.1 SSE 2 7 1 4 1022.2 1022.1 0.0
 
Date/Time
CDT
Tmp

°C
App
Tmp
°C
Dew
Point
°C
Rel
Hum
%
Delta-T

°C
Wind Press
QNH
hPa
Press
MSL
hPa
Rain
since
9 am
mm
Dir
 
Spd
km/h
Gust
km/h
Spd
kts
Gust
kts
24/11:30pm 13.2 10.7 4.7 56 3.9 S 7 9 4 5 1022.3 - 0.0
24/11:00pm 12.8 10.4 4.2 56 3.9 SSE 6 11 3 6 1022.5 - 0.0
24/10:30pm 13.0 10.8 5.2 59 3.6 S 6 9 3 5 1022.6 - 0.0
24/10:00pm 13.4 11.6 5.2 57 3.8 S 4 13 2 7 1023.0 - 0.0
24/09:30pm 13.7 11.8 5.1 56 4.0 SSW 4 9 2 5 1022.9 - 0.0
24/09:00pm 14.1 11.7 5.4 56 4.1 S 7 11 4 6 1022.6 1022.5 0.0
24/08:30pm 14.6 11.8 5.2 53 4.4 SSE 9 13 5 7 1022.3 - 0.0
24/08:00pm 15.1 11.0 4.6 49 4.9 SSE 15 20 8 11 1022.0 - 0.0
24/07:30pm 15.6 11.9 4.2 46 5.3 S 13 20 7 11 1021.8 - 0.0
24/07:00pm 16.4 12.7 4.2 44 5.7 S 13 22 7 12 1021.4 - 0.0
24/06:30pm 17.6 13.6 3.0 37 6.7 S 13 20 7 11 1021.1 - 0.0
24/06:00pm 18.3 13.7 3.8 38 6.8 SSE 17 24 9 13 1021.0 1020.9 0.0
24/05:30pm 17.7 13.8 5.5 44 5.9 SSE 15 24 8 13 1021.3 - 0.0
24/05:00pm 17.7 13.6 6.0 46 5.7 SSE 17 22 9 12 1021.3 - 0.0
24/04:30pm 17.8 13.8 5.1 43 6.1 S 15 24 8 13 1021.2 - 0.0
24/04:00pm 18.0 14.0 6.7 47 5.6 SSE 17 24 9 13 1021.0 - 0.0
24/03:30pm 16.8 13.2 6.9 52 4.9 SE 15 26 8 14 1021.4 - 0.0
24/03:00pm 17.7 13.2 6.3 47 5.6 SSE 19 28 10 15 1021.5 1021.4 0.0
24/02:30pm 18.0 14.3 6.2 46 5.8 SSW 15 24 8 13 1021.7 - 0.0
24/02:00pm 16.8 12.3 7.1 52 4.8 S 20 28 11 15 1022.1 - 0.0
24/01:30pm 18.1 13.7 6.6 47 5.7 SSW 19 30 10 16 1021.9 - 0.0
24/01:00pm 18.9 15.1 5.6 41 6.5 SSW 15 26 8 14 1022.2 - 0.0
24/12:30pm 17.6 12.9 5.1 43 6.0 SSW 19 32 10 17 1022.5 - 0.0
24/12:00pm 18.0 13.0 3.6 38 6.7 S 19 30 10 16 1022.8 1022.7 0.0
24/11:30am 17.3 12.5 5.7 46 5.6 SSE 20 32 11 17 1022.9 - 0.0
24/11:00am 18.3 14.8 3.5 37 6.9 S 11 19 6 10 1022.6 - 0.0
24/10:30am 16.9 12.8 6.0 48 5.3 SE 17 24 9 13 1022.7 - 0.0
24/10:00am 15.8 11.4 6.6 54 4.5 SSE 19 35 10 19 1022.8 - 0.0
24/09:30am 15.6 12.3 6.6 55 4.4 SSE 13 20 7 11 1022.6 - 0.0
24/09:00am 15.1 12.0 7.2 59 3.9 S 13 20 7 11 1022.3 1022.2 0.0

Latest Capital City Observations: Canberra | Sydney | Melbourne | Brisbane | Adelaide | Perth | Hobart | Darwin

Other Formats:

Comma delimited format used in spreadsheet applications
http://www.bom.gov.au/fwo/IDS60901/IDS60901.94675.axf

JavaScript Object Notation format (JSON) in row-major order
http://www.bom.gov.au/fwo/IDS60901/IDS60901.94675.json